sensor_id;sensor_type;location;lat;lon;timestamp;temperature;humidity
9311;DHT22;4694;52.464;13.480;2024-03-08T00:01:24;1.30;99.90
9311;DHT22;4694;52.464;13.480;2024-03-08T00:03:51;1.30;99.90
9311;DHT22;4694;52.464;13.480;2024-03-08T00:06:18;1.30;99.90
9311;DHT22;4694;52.464;13.480;2024-03-08T00:08:44;1.30;99.90
9311;DHT22;4694;52.464;13.480;2024-03-08T00:11:11;1.20;99.90
9311;DHT22;4694;52.464;13.480;2024-03-08T00:13:39;1.20;99.90
9311;DHT22;4694;52.464;13.480;2024-03-08T00:16:06;1.20;99.90
9311;DHT22;4694;52.464;13.480;2024-03-08T00:18:34;1.20;99.90
9311;DHT22;4694;52.464;13.480;2024-03-08T00:21:01;1.10;99.90
9311;DHT22;4694;52.464;13.480;2024-03-08T00:23:28;1.10;99.90
9311;DHT22;4694;52.464;13.480;2024-03-08T00:25:54;1.10;99.90
9311;DHT22;4694;52.464;13.480;2024-03-08T00:28:21;1.10;99.90
9311;DHT22;4694;52.464;13.480;2024-03-08T00:30:51;1.10;99.90
9311;DHT22;4694;52.464;13.480;2024-03-08T00:33:18;1.00;99.90
9311;DHT22;4694;52.464;13.480;2024-03-08T00:35:44;1.10;99.90
9311;DHT22;4694;52.464;13.480;2024-03-08T00:38:11;1.10;99.90
9311;DHT22;4694;52.464;13.480;2024-03-08T00:40:38;1.10;99.90
9311;DHT22;4694;52.464;13.480;2024-03-08T00:43:06;1.10;99.90
9311;DHT22;4694;52.464;13.480;2024-03-08T00:45:32;1.10;99.90
9311;DHT22;4694;52.464;13.480;2024-03-08T00:48:00;1.10;99.90
9311;DHT22;4694;52.464;13.480;2024-03-08T00:50:27;1.00;99.90
9311;DHT22;4694;52.464;13.480;2024-03-08T00:52:54;1.00;99.90
9311;DHT22;4694;52.464;13.480;2024-03-08T00:55:21;1.00;99.90
9311;DHT22;4694;52.464;13.480;2024-03-08T00:57:48;1.00;99.90
9311;DHT22;4694;52.464;13.480;2024-03-08T01:00:16;1.00;99.90
9311;DHT22;4694;52.464;13.480;2024-03-08T01:02:43;0.90;99.90
9311;DHT22;4694;52.464;13.480;2024-03-08T01:05:11;0.90;99.90
9311;DHT22;4694;52.464;13.480;2024-03-08T01:07:38;0.90;99.90
9311;DHT22;4694;52.464;13.480;2024-03-08T01:10:05;0.90;99.90
9311;DHT22;4694;52.464;13.480;2024-03-08T01:12:35;0.90;99.90
9311;DHT22;4694;52.464;13.480;2024-03-08T01:15:01;0.80;99.90
9311;DHT22;4694;52.464;13.480;2024-03-08T01:17:28;0.80;99.90
9311;DHT22;4694;52.464;13.480;2024-03-08T01:19:55;0.80;99.90
9311;DHT22;4694;52.464;13.480;2024-03-08T01:22:23;0.70;99.90
9311;DHT22;4694;52.464;13.480;2024-03-08T01:24:49;0.70;99.90
9311;DHT22;4694;52.464;13.480;2024-03-08T01:27:16;0.70;99.90
9311;DHT22;4694;52.464;13.480;2024-03-08T01:29:43;0.70;99.90
9311;DHT22;4694;52.464;13.480;2024-03-08T01:32:09;0.60;99.90
9311;DHT22;4694;52.464;13.480;2024-03-08T01:34:37;0.60;99.90
9311;DHT22;4694;52.464;13.480;2024-03-08T01:37:04;0.60;99.90
9311;DHT22;4694;52.464;13.480;2024-03-08T01:39:33;0.60;99.90
9311;DHT22;4694;52.464;13.480;2024-03-08T01:42:00;0.60;99.90
9311;DHT22;4694;52.464;13.480;2024-03-08T01:44:27;0.60;99.90
9311;DHT22;4694;52.464;13.480;2024-03-08T01:46:53;0.60;99.90
9311;DHT22;4694;52.464;13.480;2024-03-08T01:49:21;0.60;99.90
9311;DHT22;4694;52.464;13.480;2024-03-08T01:51:49;0.60;99.90
9311;DHT22;4694;52.464;13.480;2024-03-08T01:54:17;0.50;99.90
9311;DHT22;4694;52.464;13.480;2024-03-08T01:56:47;0.50;99.90
9311;DHT22;4694;52.464;13.480;2024-03-08T01:59:15;0.50;99.90
9311;DHT22;4694;52.464;13.480;2024-03-08T02:01:42;0.50;99.90
9311;DHT22;4694;52.464;13.480;2024-03-08T02:04:09;0.50;99.90
9311;DHT22;4694;52.464;13.480;2024-03-08T02:06:36;0.40;99.90
9311;DHT22;4694;52.464;13.480;2024-03-08T02:09:04;0.40;99.90
9311;DHT22;4694;52.464;13.480;2024-03-08T02:11:33;0.40;99.90
9311;DHT22;4694;52.464;13.480;2024-03-08T02:14:01;0.40;99.90
9311;DHT22;4694;52.464;13.480;2024-03-08T02:16:28;0.40;99.90
9311;DHT22;4694;52.464;13.480;2024-03-08T02:18:54;0.40;99.90
9311;DHT22;4694;52.464;13.480;2024-03-08T02:21:23;0.30;99.90
9311;DHT22;4694;52.464;13.480;2024-03-08T02:23:50;0.30;99.90
9311;DHT22;4694;52.464;13.480;2024-03-08T02:26:18;0.30;99.90
9311;DHT22;4694;52.464;13.480;2024-03-08T02:28:44;0.30;99.90
9311;DHT22;4694;52.464;13.480;2024-03-08T02:31:11;0.30;99.90
9311;DHT22;4694;52.464;13.480;2024-03-08T02:33:38;0.30;99.90
9311;DHT22;4694;52.464;13.480;2024-03-08T02:36:05;0.30;99.90
9311;DHT22;4694;52.464;13.480;2024-03-08T02:38:34;0.30;99.90
9311;DHT22;4694;52.464;13.480;2024-03-08T02:41:00;0.30;99.90
9311;DHT22;4694;52.464;13.480;2024-03-08T02:43:29;0.30;99.90
9311;DHT22;4694;52.464;13.480;2024-03-08T02:45:55;0.30;99.90
9311;DHT22;4694;52.464;13.480;2024-03-08T02:48:21;0.30;99.90
9311;DHT22;4694;52.464;13.480;2024-03-08T02:50:48;0.30;99.90
9311;DHT22;4694;52.464;13.480;2024-03-08T02:53:16;0.30;99.90
9311;DHT22;4694;52.464;13.480;2024-03-08T02:55:45;0.30;99.90
9311;DHT22;4694;52.464;13.480;2024-03-08T02:58:12;0.30;99.90
9311;DHT22;4694;52.464;13.480;2024-03-08T03:00:40;0.30;99.90
9311;DHT22;4694;52.464;13.480;2024-03-08T03:03:07;0.30;99.90
9311;DHT22;4694;52.464;13.480;2024-03-08T03:05:33;0.20;99.90
9311;DHT22;4694;52.464;13.480;2024-03-08T03:08:00;0.20;99.90
9311;DHT22;4694;52.464;13.480;2024-03-08T03:10:29;0.20;99.90
9311;DHT22;4694;52.464;13.480;2024-03-08T03:12:57;0.20;99.90
9311;DHT22;4694;52.464;13.480;2024-03-08T03:15:24;0.10;99.90
9311;DHT22;4694;52.464;13.480;2024-03-08T03:17:51;0.10;99.90
9311;DHT22;4694;52.464;13.480;2024-03-08T03:20:18;0.10;99.90
9311;DHT22;4694;52.464;13.480;2024-03-08T03:22:52;0.10;99.90
9311;DHT22;4694;52.464;13.480;2024-03-08T03:25:19;0.10;99.90
9311;DHT22;4694;52.464;13.480;2024-03-08T03:27:51;0.00;99.90
9311;DHT22;4694;52.464;13.480;2024-03-08T03:30:19;0.10;99.90
9311;DHT22;4694;52.464;13.480;2024-03-08T03:32:47;0.10;99.90
9311;DHT22;4694;52.464;13.480;2024-03-08T03:35:15;0.10;99.90
9311;DHT22;4694;52.464;13.480;2024-03-08T03:37:42;0.00;99.90
9311;DHT22;4694;52.464;13.480;2024-03-08T03:40:11;0.00;99.90
9311;DHT22;4694;52.464;13.480;2024-03-08T03:42:38;0.00;99.90
9311;DHT22;4694;52.464;13.480;2024-03-08T03:45:05;0.00;99.90
9311;DHT22;4694;52.464;13.480;2024-03-08T03:47:33;-0.10;99.90
9311;DHT22;4694;52.464;13.480;2024-03-08T03:50:00;-0.10;99.90
9311;DHT22;4694;52.464;13.480;2024-03-08T03:52:28;-0.10;99.90
9311;DHT22;4694;52.464;13.480;2024-03-08T03:54:55;-0.10;99.90
9311;DHT22;4694;52.464;13.480;2024-03-08T03:57:22;-0.10;99.90
9311;DHT22;4694;52.464;13.480;2024-03-08T03:59:49;-0.10;99.90
9311;DHT22;4694;52.464;13.480;2024-03-08T04:02:16;-0.20;99.90
9311;DHT22;4694;52.464;13.480;2024-03-08T04:04:44;-0.20;99.90
9311;DHT22;4694;52.464;13.480;2024-03-08T04:07:11;-0.20;99.90
9311;DHT22;4694;52.464;13.480;2024-03-08T04:09:38;-0.20;99.90
9311;DHT22;4694;52.464;13.480;2024-03-08T04:12:05;-0.20;99.90
9311;DHT22;4694;52.464;13.480;2024-03-08T04:14:32;-0.20;99.90
9311;DHT22;4694;52.464;13.480;2024-03-08T04:17:00;-0.20;99.90
9311;DHT22;4694;52.464;13.480;2024-03-08T04:19:26;-0.20;99.90
9311;DHT22;4694;52.464;13.480;2024-03-08T04:21:55;-0.30;99.90
9311;DHT22;4694;52.464;13.480;2024-03-08T04:24:21;-0.30;99.90
9311;DHT22;4694;52.464;13.480;2024-03-08T04:26:48;-0.30;99.90
9311;DHT22;4694;52.464;13.480;2024-03-08T04:29:14;-0.30;99.90
9311;DHT22;4694;52.464;13.480;2024-03-08T04:31:42;-0.20;99.90
9311;DHT22;4694;52.464;13.480;2024-03-08T04:34:10;-0.20;99.90
9311;DHT22;4694;52.464;13.480;2024-03-08T04:36:36;-0.30;99.90
9311;DHT22;4694;52.464;13.480;2024-03-08T04:39:04;-0.30;99.90
9311;DHT22;4694;52.464;13.480;2024-03-08T04:41:31;-0.30;99.90
9311;DHT22;4694;52.464;13.480;2024-03-08T04:43:59;-0.30;99.90
9311;DHT22;4694;52.464;13.480;2024-03-08T04:46:26;-0.30;99.90
9311;DHT22;4694;52.464;13.480;2024-03-08T04:48:54;-0.20;99.90
9311;DHT22;4694;52.464;13.480;2024-03-08T04:51:20;-0.20;99.90
9311;DHT22;4694;52.464;13.480;2024-03-08T04:53:47;-0.30;99.90
9311;DHT22;4694;52.464;13.480;2024-03-08T04:56:15;-0.30;99.90
9311;DHT22;4694;52.464;13.480;2024-03-08T04:58:42;-0.30;99.90
9311;DHT22;4694;52.464;13.480;2024-03-08T05:01:08;-0.30;99.90
9311;DHT22;4694;52.464;13.480;2024-03-08T05:03:36;-0.30;99.90
9311;DHT22;4694;52.464;13.480;2024-03-08T05:06:04;-0.30;99.90
9311;DHT22;4694;52.464;13.480;2024-03-08T05:08:30;-0.40;99.90
9311;DHT22;4694;52.464;13.480;2024-03-08T05:10:59;-0.40;99.90
9311;DHT22;4694;52.464;13.480;2024-03-08T05:13:30;-0.40;99.90
9311;DHT22;4694;52.464;13.480;2024-03-08T05:15:57;-0.40;99.90
9311;DHT22;4694;52.464;13.480;2024-03-08T05:18:23;-0.40;99.90
9311;DHT22;4694;52.464;13.480;2024-03-08T05:20:50;-0.40;99.90
9311;DHT22;4694;52.464;13.480;2024-03-08T05:23:17;-0.40;99.90
9311;DHT22;4694;52.464;13.480;2024-03-08T05:25:45;-0.40;99.90
9311;DHT22;4694;52.464;13.480;2024-03-08T05:28:12;-0.50;99.90
9311;DHT22;4694;52.464;13.480;2024-03-08T05:30:40;-0.40;99.90
9311;DHT22;4694;52.464;13.480;2024-03-08T05:33:07;-0.40;99.90
9311;DHT22;4694;52.464;13.480;2024-03-08T05:35:35;-0.50;99.90
9311;DHT22;4694;52.464;13.480;2024-03-08T05:38:02;-0.50;99.90
9311;DHT22;4694;52.464;13.480;2024-03-08T05:40:29;-0.50;99.90
9311;DHT22;4694;52.464;13.480;2024-03-08T05:42:57;-0.50;99.90
9311;DHT22;4694;52.464;13.480;2024-03-08T05:45:24;-0.50;99.90
9311;DHT22;4694;52.464;13.480;2024-03-08T05:47:52;-0.50;99.90
9311;DHT22;4694;52.464;13.480;2024-03-08T05:50:19;-0.50;99.90
9311;DHT22;4694;52.464;13.480;2024-03-08T05:52:45;-0.50;99.90
9311;DHT22;4694;52.464;13.480;2024-03-08T05:55:13;-0.50;99.90
9311;DHT22;4694;52.464;13.480;2024-03-08T05:57:40;-0.50;99.90
9311;DHT22;4694;52.464;13.480;2024-03-08T06:00:08;-0.50;99.90
9311;DHT22;4694;52.464;13.480;2024-03-08T06:02:36;-0.50;99.90
9311;DHT22;4694;52.464;13.480;2024-03-08T06:05:08;-0.40;99.90
9311;DHT22;4694;52.464;13.480;2024-03-08T06:07:35;-0.40;99.90
9311;DHT22;4694;52.464;13.480;2024-03-08T06:10:02;-0.30;99.90
9311;DHT22;4694;52.464;13.480;2024-03-08T06:12:28;-0.30;99.90
9311;DHT22;4694;52.464;13.480;2024-03-08T06:14:58;-0.30;99.90
9311;DHT22;4694;52.464;13.480;2024-03-08T06:17:25;-0.30;99.90
9311;DHT22;4694;52.464;13.480;2024-03-08T06:19:52;-0.20;99.90
9311;DHT22;4694;52.464;13.480;2024-03-08T06:22:21;-0.10;99.90
9311;DHT22;4694;52.464;13.480;2024-03-08T06:24:47;0.00;99.90
9311;DHT22;4694;52.464;13.480;2024-03-08T06:27:14;0.10;99.90
9311;DHT22;4694;52.464;13.480;2024-03-08T06:29:40;0.20;99.90
9311;DHT22;4694;52.464;13.480;2024-03-08T06:32:07;0.30;99.90
9311;DHT22;4694;52.464;13.480;2024-03-08T06:34:34;0.70;99.90
9311;DHT22;4694;52.464;13.480;2024-03-08T06:37:01;1.00;99.90
9311;DHT22;4694;52.464;13.480;2024-03-08T06:39:29;1.40;99.90
9311;DHT22;4694;52.464;13.480;2024-03-08T06:41:57;1.70;99.90
9311;DHT22;4694;52.464;13.480;2024-03-08T06:44:23;1.80;99.90
9311;DHT22;4694;52.464;13.480;2024-03-08T06:46:51;1.80;99.90
9311;DHT22;4694;52.464;13.480;2024-03-08T06:49:18;1.80;99.90
9311;DHT22;4694;52.464;13.480;2024-03-08T06:51:45;1.70;99.90
9311;DHT22;4694;52.464;13.480;2024-03-08T06:54:11;1.70;99.90
9311;DHT22;4694;52.464;13.480;2024-03-08T06:56:41;1.70;99.90
9311;DHT22;4694;52.464;13.480;2024-03-08T06:59:08;1.80;99.90
9311;DHT22;4694;52.464;13.480;2024-03-08T07:01:36;2.10;99.90
9311;DHT22;4694;52.464;13.480;2024-03-08T07:04:04;2.60;99.90
9311;DHT22;4694;52.464;13.480;2024-03-08T07:06:31;3.10;99.90
9311;DHT22;4694;52.464;13.480;2024-03-08T07:08:59;3.40;99.90
9311;DHT22;4694;52.464;13.480;2024-03-08T07:11:26;3.50;99.90
9311;DHT22;4694;52.464;13.480;2024-03-08T07:13:54;3.40;99.90
9311;DHT22;4694;52.464;13.480;2024-03-08T07:16:21;3.10;99.90
9311;DHT22;4694;52.464;13.480;2024-03-08T07:18:47;3.00;99.90
9311;DHT22;4694;52.464;13.480;2024-03-08T07:21:17;3.00;99.90
9311;DHT22;4694;52.464;13.480;2024-03-08T07:23:45;3.40;99.90
9311;DHT22;4694;52.464;13.480;2024-03-08T07:26:40;3.90;99.90
9311;DHT22;4694;52.464;13.480;2024-03-08T07:29:08;4.70;99.90
9311;DHT22;4694;52.464;13.480;2024-03-08T07:31:34;5.30;99.90
9311;DHT22;4694;52.464;13.480;2024-03-08T07:34:15;5.90;99.90
9311;DHT22;4694;52.464;13.480;2024-03-08T07:36:43;6.50;99.90
9311;DHT22;4694;52.464;13.480;2024-03-08T07:39:10;6.90;99.90
9311;DHT22;4694;52.464;13.480;2024-03-08T07:41:37;7.40;99.90
9311;DHT22;4694;52.464;13.480;2024-03-08T07:44:05;7.80;99.90
9311;DHT22;4694;52.464;13.480;2024-03-08T07:46:33;8.20;99.90
9311;DHT22;4694;52.464;13.480;2024-03-08T07:49:00;8.60;99.90
9311;DHT22;4694;52.464;13.480;2024-03-08T07:51:27;9.00;99.90
9311;DHT22;4694;52.464;13.480;2024-03-08T07:53:53;9.50;99.40
9311;DHT22;4694;52.464;13.480;2024-03-08T07:56:21;9.80;96.60
9311;DHT22;4694;52.464;13.480;2024-03-08T07:58:49;10.20;94.80
9311;DHT22;4694;52.464;13.480;2024-03-08T08:01:16;10.40;92.20
9311;DHT22;4694;52.464;13.480;2024-03-08T08:03:44;10.70;91.60
9311;DHT22;4694;52.464;13.480;2024-03-08T08:06:11;10.90;89.50
9311;DHT22;4694;52.464;13.480;2024-03-08T08:08:41;11.30;86.80
9311;DHT22;4694;52.464;13.480;2024-03-08T08:11:08;11.60;84.20
9311;DHT22;4694;52.464;13.480;2024-03-08T08:13:36;11.80;82.30
9311;DHT22;4694;52.464;13.480;2024-03-08T08:16:04;12.10;80.80
9311;DHT22;4694;52.464;13.480;2024-03-08T08:18:32;12.30;78.00
9311;DHT22;4694;52.464;13.480;2024-03-08T08:21:01;12.50;77.00
9311;DHT22;4694;52.464;13.480;2024-03-08T08:23:28;12.50;76.60
9311;DHT22;4694;52.464;13.480;2024-03-08T08:25:56;12.60;74.90
9311;DHT22;4694;52.464;13.480;2024-03-08T08:28:22;12.40;74.00
9311;DHT22;4694;52.464;13.480;2024-03-08T08:30:51;12.30;73.90
9311;DHT22;4694;52.464;13.480;2024-03-08T08:33:17;12.10;73.10
9311;DHT22;4694;52.464;13.480;2024-03-08T08:35:45;11.90;73.10
9311;DHT22;4694;52.464;13.480;2024-03-08T08:38:14;11.70;74.00
9311;DHT22;4694;52.464;13.480;2024-03-08T08:40:41;11.50;74.50
9311;DHT22;4694;52.464;13.480;2024-03-08T08:43:09;11.40;74.60
9311;DHT22;4694;52.464;13.480;2024-03-08T08:45:35;11.20;75.40
9311;DHT22;4694;52.464;13.480;2024-03-08T08:48:04;11.00;74.80
9311;DHT22;4694;52.464;13.480;2024-03-08T08:50:32;10.90;75.60
9311;DHT22;4694;52.464;13.480;2024-03-08T08:52:58;10.80;76.40
9311;DHT22;4694;52.464;13.480;2024-03-08T08:55:27;10.80;76.40
9311;DHT22;4694;52.464;13.480;2024-03-08T08:57:54;11.10;76.70
9311;DHT22;4694;52.464;13.480;2024-03-08T09:00:21;11.20;74.30
9311;DHT22;4694;52.464;13.480;2024-03-08T09:02:52;11.10;73.70
9311;DHT22;4694;52.464;13.480;2024-03-08T09:05:20;10.90;73.60
9311;DHT22;4694;52.464;13.480;2024-03-08T09:07:49;10.90;73.80
9311;DHT22;4694;52.464;13.480;2024-03-08T09:10:16;10.70;73.90
9311;DHT22;4694;52.464;13.480;2024-03-08T09:12:45;10.50;74.10
9311;DHT22;4694;52.464;13.480;2024-03-08T09:15:13;10.30;74.50
9311;DHT22;4694;52.464;13.480;2024-03-08T09:17:39;10.10;75.20
9311;DHT22;4694;52.464;13.480;2024-03-08T09:20:07;9.90;74.50
9311;DHT22;4694;52.464;13.480;2024-03-08T09:22:34;9.80;74.70
9311;DHT22;4694;52.464;13.480;2024-03-08T09:24:59;9.70;75.30
9311;DHT22;4694;52.464;13.480;2024-03-08T09:27:26;9.80;76.10
9311;DHT22;4694;52.464;13.480;2024-03-08T09:29:55;9.90;75.40
9311;DHT22;4694;52.464;13.480;2024-03-08T09:32:21;10.10;75.10
9311;DHT22;4694;52.464;13.480;2024-03-08T09:34:48;10.40;74.20
9311;DHT22;4694;52.464;13.480;2024-03-08T09:37:15;10.30;73.20
9311;DHT22;4694;52.464;13.480;2024-03-08T09:39:42;10.40;73.60
9311;DHT22;4694;52.464;13.480;2024-03-08T09:42:09;10.40;73.20
9311;DHT22;4694;52.464;13.480;2024-03-08T09:44:43;10.70;73.10
9311;DHT22;4694;52.464;13.480;2024-03-08T09:47:12;11.00;72.30
9311;DHT22;4694;52.464;13.480;2024-03-08T09:49:39;11.20;71.10
9311;DHT22;4694;52.464;13.480;2024-03-08T09:52:06;11.70;70.30
9311;DHT22;4694;52.464;13.480;2024-03-08T09:54:34;12.20;68.80
9311;DHT22;4694;52.464;13.480;2024-03-08T09:57:01;12.80;67.90
9311;DHT22;4694;52.464;13.480;2024-03-08T09:59:29;13.60;65.50
9311;DHT22;4694;52.464;13.480;2024-03-08T10:02:15;14.00;63.50
9311;DHT22;4694;52.464;13.480;2024-03-08T10:04:43;14.40;61.90
9311;DHT22;4694;52.464;13.480;2024-03-08T10:07:11;14.70;60.30
9311;DHT22;4694;52.464;13.480;2024-03-08T10:09:38;15.10;58.60
9311;DHT22;4694;52.464;13.480;2024-03-08T10:12:05;15.60;57.90
9311;DHT22;4694;52.464;13.480;2024-03-08T10:14:33;16.50;55.50
9311;DHT22;4694;52.464;13.480;2024-03-08T10:17:00;17.40;53.50
9311;DHT22;4694;52.464;13.480;2024-03-08T10:19:28;18.00;51.50
9311;DHT22;4694;52.464;13.480;2024-03-08T10:21:55;18.70;49.70
9311;DHT22;4694;52.464;13.480;2024-03-08T10:24:24;19.10;48.20
9311;DHT22;4694;52.464;13.480;2024-03-08T10:26:52;19.70;47.40
9311;DHT22;4694;52.464;13.480;2024-03-08T10:29:19;20.20;46.60
9311;DHT22;4694;52.464;13.480;2024-03-08T10:31:46;21.10;45.60
9311;DHT22;4694;52.464;13.480;2024-03-08T10:34:12;21.70;43.30
9311;DHT22;4694;52.464;13.480;2024-03-08T10:36:41;21.80;42.50
9311;DHT22;4694;52.464;13.480;2024-03-08T10:39:16;22.00;42.00
9311;DHT22;4694;52.464;13.480;2024-03-08T10:41:46;22.20;42.10
9311;DHT22;4694;52.464;13.480;2024-03-08T10:44:26;22.60;40.90
9311;DHT22;4694;52.464;13.480;2024-03-08T10:47:01;22.70;40.50
9311;DHT22;4694;52.464;13.480;2024-03-08T10:49:31;23.20;39.70
9311;DHT22;4694;52.464;13.480;2024-03-08T10:52:04;23.70;39.30
9311;DHT22;4694;52.464;13.480;2024-03-08T10:54:34;23.80;38.60
9311;DHT22;4694;52.464;13.480;2024-03-08T10:57:03;23.90;37.90
9311;DHT22;4694;52.464;13.480;2024-03-08T10:59:34;23.50;37.30
9311;DHT22;4694;52.464;13.480;2024-03-08T11:02:02;23.50;37.80
9311;DHT22;4694;52.464;13.480;2024-03-08T11:04:31;23.60;37.90
9311;DHT22;4694;52.464;13.480;2024-03-08T11:07:00;24.10;37.30
9311;DHT22;4694;52.464;13.480;2024-03-08T11:09:35;24.80;37.40
9311;DHT22;4694;52.464;13.480;2024-03-08T11:12:28;25.30;36.70
9311;DHT22;4694;52.464;13.480;2024-03-08T11:14:57;25.40;35.80
9311;DHT22;4694;52.464;13.480;2024-03-08T11:17:40;25.40;35.90
9311;DHT22;4694;52.464;13.480;2024-03-08T11:20:10;25.30;35.90
9311;DHT22;4694;52.464;13.480;2024-03-08T11:22:41;25.40;35.70
9311;DHT22;4694;52.464;13.480;2024-03-08T11:25:31;25.60;35.60
9311;DHT22;4694;52.464;13.480;2024-03-08T11:28:09;26.10;35.70
9311;DHT22;4694;52.464;13.480;2024-03-08T11:30:45;26.50;35.00
9311;DHT22;4694;52.464;13.480;2024-03-08T11:33:14;26.80;34.80
9311;DHT22;4694;52.464;13.480;2024-03-08T11:35:42;27.00;34.60
9311;DHT22;4694;52.464;13.480;2024-03-08T11:38:12;27.10;34.20
9311;DHT22;4694;52.464;13.480;2024-03-08T11:40:41;27.20;34.20
9311;DHT22;4694;52.464;13.480;2024-03-08T11:43:08;27.50;34.00
9311;DHT22;4694;52.464;13.480;2024-03-08T11:45:35;27.50;33.30
9311;DHT22;4694;52.464;13.480;2024-03-08T11:48:03;27.40;33.50
9311;DHT22;4694;52.464;13.480;2024-03-08T11:50:30;27.50;33.00
9311;DHT22;4694;52.464;13.480;2024-03-08T11:53:01;27.40;32.50
9311;DHT22;4694;52.464;13.480;2024-03-08T11:55:28;27.40;32.70
9311;DHT22;4694;52.464;13.480;2024-03-08T11:58:01;27.40;32.00
9311;DHT22;4694;52.464;13.480;2024-03-08T12:00:28;27.10;32.30
9311;DHT22;4694;52.464;13.480;2024-03-08T12:03:05;27.30;32.10
9311;DHT22;4694;52.464;13.480;2024-03-08T12:05:33;27.10;31.70
9311;DHT22;4694;52.464;13.480;2024-03-08T12:08:02;27.10;31.90
9311;DHT22;4694;52.464;13.480;2024-03-08T12:10:30;27.20;31.70
9311;DHT22;4694;52.464;13.480;2024-03-08T12:12:58;27.30;31.60
9311;DHT22;4694;52.464;13.480;2024-03-08T12:15:28;27.40;32.10
9311;DHT22;4694;52.464;13.480;2024-03-08T12:17:59;27.70;32.20
9311;DHT22;4694;52.464;13.480;2024-03-08T12:20:27;28.00;33.00
9311;DHT22;4694;52.464;13.480;2024-03-08T12:22:55;27.90;33.00
9311;DHT22;4694;52.464;13.480;2024-03-08T12:25:25;27.90;32.70
9311;DHT22;4694;52.464;13.480;2024-03-08T12:27:52;28.00;32.10
9311;DHT22;4694;52.464;13.480;2024-03-08T12:30:22;27.90;31.50
9311;DHT22;4694;52.464;13.480;2024-03-08T12:32:55;27.60;32.00
9311;DHT22;4694;52.464;13.480;2024-03-08T12:35:24;27.70;31.90
9311;DHT22;4694;52.464;13.480;2024-03-08T12:37:52;28.00;32.30
9311;DHT22;4694;52.464;13.480;2024-03-08T12:40:25;28.40;32.30
9311;DHT22;4694;52.464;13.480;2024-03-08T12:42:53;28.70;32.30
9311;DHT22;4694;52.464;13.480;2024-03-08T12:45:20;28.60;31.90
9311;DHT22;4694;52.464;13.480;2024-03-08T12:47:49;28.50;32.30
9311;DHT22;4694;52.464;13.480;2024-03-08T12:50:17;28.60;32.60
9311;DHT22;4694;52.464;13.480;2024-03-08T12:52:44;28.80;32.70
9311;DHT22;4694;52.464;13.480;2024-03-08T12:55:11;28.90;32.60
9311;DHT22;4694;52.464;13.480;2024-03-08T12:57:38;28.80;32.30
9311;DHT22;4694;52.464;13.480;2024-03-08T13:00:05;28.40;32.10
9311;DHT22;4694;52.464;13.480;2024-03-08T13:02:38;28.20;32.30
9311;DHT22;4694;52.464;13.480;2024-03-08T13:05:06;28.20;32.40
9311;DHT22;4694;52.464;13.480;2024-03-08T13:07:37;28.10;32.40
9311;DHT22;4694;52.464;13.480;2024-03-08T13:10:04;28.20;32.30
9311;DHT22;4694;52.464;13.480;2024-03-08T13:12:32;28.10;32.20
9311;DHT22;4694;52.464;13.480;2024-03-08T13:15:00;28.10;32.50
9311;DHT22;4694;52.464;13.480;2024-03-08T13:17:27;28.10;32.20
9311;DHT22;4694;52.464;13.480;2024-03-08T13:19:54;27.90;32.50
9311;DHT22;4694;52.464;13.480;2024-03-08T13:22:23;28.00;32.50
9311;DHT22;4694;52.464;13.480;2024-03-08T13:24:51;28.10;32.50
9311;DHT22;4694;52.464;13.480;2024-03-08T13:27:18;28.00;32.40
9311;DHT22;4694;52.464;13.480;2024-03-08T13:29:46;28.10;32.60
9311;DHT22;4694;52.464;13.480;2024-03-08T13:32:14;28.30;32.60
9311;DHT22;4694;52.464;13.480;2024-03-08T13:34:41;28.40;32.10
9311;DHT22;4694;52.464;13.480;2024-03-08T13:37:08;27.90;32.20
9311;DHT22;4694;52.464;13.480;2024-03-08T13:39:35;27.60;32.40
9311;DHT22;4694;52.464;13.480;2024-03-08T13:42:09;27.40;32.50
9311;DHT22;4694;52.464;13.480;2024-03-08T13:44:39;27.20;32.10
9311;DHT22;4694;52.464;13.480;2024-03-08T13:47:06;27.10;32.20
9311;DHT22;4694;52.464;13.480;2024-03-08T13:49:32;27.10;32.20
9311;DHT22;4694;52.464;13.480;2024-03-08T13:51:59;27.10;32.30
9311;DHT22;4694;52.464;13.480;2024-03-08T13:54:26;27.10;32.20
9311;DHT22;4694;52.464;13.480;2024-03-08T13:56:56;27.20;32.40
9311;DHT22;4694;52.464;13.480;2024-03-08T13:59:24;27.10;32.40
9311;DHT22;4694;52.464;13.480;2024-03-08T14:01:55;27.00;32.30
9311;DHT22;4694;52.464;13.480;2024-03-08T14:04:22;27.00;32.20
9311;DHT22;4694;52.464;13.480;2024-03-08T14:06:49;27.00;32.40
9311;DHT22;4694;52.464;13.480;2024-03-08T14:09:17;27.00;32.30
9311;DHT22;4694;52.464;13.480;2024-03-08T14:11:44;27.10;32.30
9311;DHT22;4694;52.464;13.480;2024-03-08T14:14:11;27.10;31.90
9311;DHT22;4694;52.464;13.480;2024-03-08T14:16:39;27.20;32.10
9311;DHT22;4694;52.464;13.480;2024-03-08T14:19:07;27.50;32.20
9311;DHT22;4694;52.464;13.480;2024-03-08T14:21:35;27.30;32.10
9311;DHT22;4694;52.464;13.480;2024-03-08T14:24:05;26.90;31.90
9311;DHT22;4694;52.464;13.480;2024-03-08T14:26:32;26.60;32.20
9311;DHT22;4694;52.464;13.480;2024-03-08T14:28:59;26.50;32.60
9311;DHT22;4694;52.464;13.480;2024-03-08T14:31:26;26.60;32.30
9311;DHT22;4694;52.464;13.480;2024-03-08T14:33:54;26.70;32.40
9311;DHT22;4694;52.464;13.480;2024-03-08T14:36:22;26.20;32.20
9311;DHT22;4694;52.464;13.480;2024-03-08T14:38:51;25.60;33.30
9311;DHT22;4694;52.464;13.480;2024-03-08T14:41:18;25.40;33.10
9311;DHT22;4694;52.464;13.480;2024-03-08T14:43:44;25.20;33.20
9311;DHT22;4694;52.464;13.480;2024-03-08T14:46:13;25.20;33.30
9311;DHT22;4694;52.464;13.480;2024-03-08T14:48:42;25.20;33.20
9311;DHT22;4694;52.464;13.480;2024-03-08T14:51:10;25.00;33.00
9311;DHT22;4694;52.464;13.480;2024-03-08T14:53:40;24.70;33.20
9311;DHT22;4694;52.464;13.480;2024-03-08T14:56:07;24.60;33.40
9311;DHT22;4694;52.464;13.480;2024-03-08T14:58:34;24.40;33.60
9311;DHT22;4694;52.464;13.480;2024-03-08T15:01:03;24.40;33.70
9311;DHT22;4694;52.464;13.480;2024-03-08T15:03:34;24.20;33.30
9311;DHT22;4694;52.464;13.480;2024-03-08T15:06:01;24.10;33.60
9311;DHT22;4694;52.464;13.480;2024-03-08T15:08:35;24.10;33.60
9311;DHT22;4694;52.464;13.480;2024-03-08T15:11:02;23.80;33.90
9311;DHT22;4694;52.464;13.480;2024-03-08T15:13:28;23.50;33.90
9311;DHT22;4694;52.464;13.480;2024-03-08T15:16:05;22.90;34.30
9311;DHT22;4694;52.464;13.480;2024-03-08T15:18:33;22.30;35.00
9311;DHT22;4694;52.464;13.480;2024-03-08T15:21:03;21.80;35.60
9311;DHT22;4694;52.464;13.480;2024-03-08T15:23:35;21.40;35.90
9311;DHT22;4694;52.464;13.480;2024-03-08T15:26:01;20.60;36.40
9311;DHT22;4694;52.464;13.480;2024-03-08T15:28:29;20.00;37.30
9311;DHT22;4694;52.464;13.480;2024-03-08T15:31:02;19.50;37.90
9311;DHT22;4694;52.464;13.480;2024-03-08T15:33:32;19.00;38.60
9311;DHT22;4694;52.464;13.480;2024-03-08T15:35:59;18.60;39.10
9311;DHT22;4694;52.464;13.480;2024-03-08T15:38:30;18.20;39.60
9311;DHT22;4694;52.464;13.480;2024-03-08T15:40:58;17.70;40.20
9311;DHT22;4694;52.464;13.480;2024-03-08T15:43:25;17.40;40.70
9311;DHT22;4694;52.464;13.480;2024-03-08T15:45:52;17.10;41.30
9311;DHT22;4694;52.464;13.480;2024-03-08T15:48:20;16.60;41.60
9311;DHT22;4694;52.464;13.480;2024-03-08T15:50:47;16.10;42.20
9311;DHT22;4694;52.464;13.480;2024-03-08T15:53:13;15.80;43.10
9311;DHT22;4694;52.464;13.480;2024-03-08T15:55:41;15.30;43.60
9311;DHT22;4694;52.464;13.480;2024-03-08T15:58:11;14.80;44.40